createdAt,value
2023-03-05T00:04:34.430Z,100033.91
2023-03-05T00:07:03.589Z,100034.28
2023-03-05T00:09:34.313Z,100031.91
2023-03-05T00:12:01.959Z,100035.50
2023-03-05T00:14:31.061Z,100034.72
2023-03-05T00:19:53.996Z,100024.00
2023-03-05T00:22:20.431Z,100027.94
2023-03-05T00:24:49.589Z,100022.38
2023-03-05T00:27:15.941Z,100017.66
2023-03-05T00:29:42.270Z,100025.13
2023-03-05T00:34:52.574Z,100015.72
2023-03-05T00:37:18.912Z,100006.09
2023-03-05T00:39:45.226Z,100007.75
2023-03-05T00:42:11.680Z,100002.56
2023-03-05T00:44:38.013Z,99998.66
2023-03-05T00:49:58.110Z,99992.22
2023-03-05T00:52:24.409Z,99989.09
2023-03-05T00:54:50.737Z,99993.47
2023-03-05T00:57:17.152Z,99993.47
2023-03-05T00:59:43.461Z,99994.28
2023-03-05T01:04:53.693Z,99977.25
2023-03-05T01:07:20.062Z,99976.44
2023-03-05T01:09:46.384Z,99981.16
2023-03-05T01:12:12.764Z,99974.41
2023-03-05T01:14:39.135Z,99966.09
2023-03-05T01:17:05.489Z,99963.03
2023-03-05T01:19:31.901Z,99963.72
2023-03-05T01:21:58.239Z,99958.59
2023-03-05T01:24:24.598Z,99965.28
2023-03-05T01:26:50.909Z,99961.72
2023-03-05T01:29:17.218Z,99957.00
2023-03-05T01:31:43.700Z,99949.84
2023-03-05T01:34:10.073Z,99952.63
2023-03-05T01:36:36.477Z,99953.38
2023-03-05T01:39:02.831Z,99950.66
2023-03-05T01:41:29.150Z,99943.84
2023-03-05T01:43:55.519Z,99946.25
2023-03-05T01:46:21.818Z,99951.00
2023-03-05T01:48:48.151Z,99944.66
2023-03-05T01:51:14.515Z,99943.91
2023-03-05T01:53:40.947Z,99935.94
2023-03-05T01:56:07.253Z,99939.16
2023-03-05T01:58:33.597Z,99930.41
2023-03-05T02:00:59.968Z,99935.22
2023-03-05T02:03:26.372Z,99922.84
2023-03-05T02:05:52.720Z,99928.06
2023-03-05T02:08:19.054Z,99928.44
2023-03-05T02:10:45.384Z,99924.50
2023-03-05T02:13:11.732Z,99925.69
2023-03-05T02:15:38.121Z,99928.81
2023-03-05T02:18:04.509Z,99930.44
2023-03-05T02:23:14.821Z,99923.31
2023-03-05T02:25:41.139Z,99927.28
2023-03-05T02:28:07.475Z,99909.41
2023-03-05T02:30:33.805Z,99914.22
2023-03-05T02:33:00.204Z,99909.88
2023-03-05T02:38:10.363Z,99900.25
2023-03-05T02:40:36.696Z,99898.28
2023-03-05T02:43:03.010Z,99901.06
2023-03-05T02:45:29.402Z,99907.06
2023-03-05T02:47:55.759Z,99898.28
2023-03-05T02:53:16.074Z,99897.56
2023-03-05T02:55:42.529Z,99894.78
2023-03-05T02:58:08.895Z,99899.59
2023-03-05T03:00:35.252Z,99892.00
2023-03-05T03:03:01.746Z,99889.22
2023-03-05T03:08:12.293Z,99895.19
2023-03-05T03:10:38.640Z,99896.69
2023-03-05T03:13:05.005Z,99885.63
2023-03-05T03:15:31.353Z,99883.63
2023-03-05T03:17:57.691Z,99895.56
2023-03-05T03:23:17.844Z,99890.38
2023-03-05T03:25:44.269Z,99887.63
2023-03-05T03:28:10.622Z,99884.88
2023-03-05T03:30:36.968Z,99880.50
2023-03-05T03:33:03.327Z,99882.53
2023-03-05T03:38:13.585Z,99882.09
2023-03-05T03:40:39.931Z,99872.63
2023-03-05T03:43:06.308Z,99870.63
2023-03-05T03:45:32.664Z,99865.50
2023-03-05T03:47:59.013Z,99862.31
2023-03-05T03:53:19.431Z,99865.06
2023-03-05T03:55:45.783Z,99858.31
2023-03-05T03:58:12.150Z,99856.31
2023-03-05T04:00:38.544Z,99855.50
2023-03-05T04:03:04.904Z,99853.50
2023-03-05T04:08:14.930Z,99846.41
2023-03-05T04:10:41.276Z,99846.81
2023-03-05T04:13:07.720Z,99844.81
2023-03-05T04:15:34.064Z,99838.94
2023-03-05T04:18:00.416Z,99836.53
2023-03-05T04:23:23.453Z,99830.59
2023-03-05T04:25:49.812Z,99829.78
2023-03-05T04:28:16.183Z,99822.66
2023-03-05T04:30:42.553Z,99831.00
2023-03-05T04:33:08.897Z,99816.69
2023-03-05T04:38:28.931Z,99810.78
2023-03-05T04:40:55.300Z,99817.53
2023-03-05T04:43:21.633Z,99814.69
2023-03-05T04:45:47.968Z,99813.16
2023-03-05T04:48:14.323Z,99807.94
2023-03-05T04:53:24.392Z,99804.41
2023-03-05T04:55:50.732Z,99798.44
2023-03-05T04:58:17.081Z,99796.53
2023-03-05T05:00:43.427Z,99783.75
2023-03-05T05:03:09.827Z,99792.13
2023-03-05T05:08:30.202Z,99779.06
2023-03-05T05:10:56.564Z,99785.38
2023-03-05T05:13:22.899Z,99777.88
2023-03-05T05:15:49.349Z,99775.88
2023-03-05T05:18:15.744Z,99776.28
2023-03-05T05:23:26.023Z,99777.03
2023-03-05T05:25:52.342Z,99767.47
2023-03-05T05:28:18.727Z,99773.88
2023-03-05T05:30:45.051Z,99771.50
2023-03-05T05:33:11.473Z,99775.84
2023-03-05T05:38:21.961Z,99778.56
2023-03-05T05:40:48.312Z,99771.84
2023-03-05T05:43:14.644Z,99772.63
2023-03-05T05:45:41.076Z,99777.06
2023-03-05T05:48:07.531Z,99779.41
2023-03-05T05:50:33.872Z,99780.59
2023-03-05T05:53:00.219Z,99782.97
2023-03-05T05:55:26.586Z,99780.00
2023-03-05T05:57:52.930Z,99773.63
2023-03-05T06:00:19.274Z,99773.34
2023-03-05T06:02:45.831Z,99775.44
2023-03-05T06:05:12.310Z,99777.75
2023-03-05T06:07:38.659Z,99772.25
2023-03-05T06:10:05.018Z,99766.22
2023-03-05T06:12:31.364Z,99761.09
2023-03-05T06:14:57.713Z,99762.25
2023-03-05T06:17:30.415Z,99767.47
2023-03-05T06:19:57.290Z,99759.09
2023-03-05T06:22:23.669Z,99761.09
2023-03-05T06:24:50.080Z,99747.97
2023-03-05T06:27:16.485Z,99738.44
2023-03-05T06:29:43.707Z,99736.00
2023-03-05T06:32:11.019Z,99731.66
2023-03-05T06:34:37.453Z,99726.16
2023-03-05T06:37:03.815Z,99726.13
2023-03-05T06:39:31.051Z,99731.66
2023-03-05T06:41:58.437Z,99730.91
2023-03-05T06:44:24.914Z,99732.91
2023-03-05T06:46:51.260Z,99730.44
2023-03-05T06:49:17.610Z,99729.31
2023-03-05T06:51:43.929Z,99722.16
2023-03-05T06:54:10.310Z,99710.19
2023-03-05T06:56:36.696Z,99707.06
2023-03-05T06:59:03.232Z,99702.69
2023-03-05T07:01:29.623Z,99705.41
2023-03-05T07:03:55.995Z,99703.06
2023-03-05T07:06:22.503Z,99691.59
2023-03-05T07:11:32.632Z,99693.84
2023-03-05T07:13:58.969Z,99699.31
2023-03-05T07:16:25.399Z,99706.50
2023-03-05T07:18:52.669Z,99706.88
2023-03-05T07:21:18.990Z,99705.28
2023-03-05T07:26:39.290Z,99704.81
2023-03-05T07:29:05.738Z,99707.59
2023-03-05T07:31:32.368Z,99698.91
2023-03-05T07:33:58.790Z,99698.91
2023-03-05T07:36:25.142Z,99701.00
2023-03-05T07:41:45.560Z,99699.41
2023-03-05T07:44:11.918Z,99699.41
2023-03-05T07:46:38.314Z,99696.59
2023-03-05T07:49:04.673Z,99698.63
2023-03-05T07:51:31.214Z,99706.88
2023-03-05T07:56:51.594Z,99695.41
2023-03-05T07:59:17.964Z,99694.63
2023-03-05T08:01:44.288Z,99693.09
2023-03-05T08:04:10.835Z,99697.44
2023-03-05T08:06:37.339Z,99695.94
2023-03-05T08:11:47.458Z,99696.34
2023-03-05T08:14:13.858Z,99694.69
2023-03-05T08:16:40.260Z,99690.81
2023-03-05T08:19:06.707Z,99687.31
2023-03-05T08:21:33.118Z,99692.81
2023-03-05T08:26:53.216Z,99691.22
2023-03-05T08:29:19.655Z,99686.06
2023-03-05T08:31:46.918Z,99691.59
2023-03-05T08:34:13.355Z,99687.53
2023-03-05T08:36:39.715Z,99687.16
2023-03-05T08:41:51.944Z,99683.94
2023-03-05T08:44:20.239Z,99687.81
2023-03-05T08:46:46.761Z,99685.13
2023-03-05T08:49:13.249Z,99691.75
2023-03-05T08:51:39.688Z,99681.84
2023-03-05T08:57:01.269Z,99685.91
2023-03-05T08:59:27.742Z,99687.06
2023-03-05T09:01:54.269Z,99687.34
2023-03-05T09:04:22.588Z,99689.03
2023-03-05T09:06:49.015Z,99685.06
2023-03-05T09:12:12.215Z,99688.22
2023-03-05T09:14:40.696Z,99687.13
2023-03-05T09:17:09.041Z,99687.66
2023-03-05T09:19:38.214Z,99683.38
2023-03-05T09:22:04.670Z,99675.66
2023-03-05T09:27:17.666Z,99677.94
2023-03-05T09:29:44.246Z,99687.06
2023-03-05T09:32:11.564Z,99681.97
2023-03-05T09:34:38.848Z,99682.94
2023-03-05T09:37:06.067Z,99682.22
2023-03-05T09:42:27.063Z,99686.72
2023-03-05T09:44:54.336Z,99682.75
2023-03-05T09:47:21.576Z,99683.47
2023-03-05T09:49:47.986Z,99683.22
2023-03-05T09:52:15.213Z,99675.94
2023-03-05T09:57:25.651Z,99678.25
2023-03-05T09:59:54.784Z,99671.91
2023-03-05T10:02:21.152Z,99679.16
2023-03-05T10:04:47.465Z,99678.44
2023-03-05T10:07:13.906Z,99674.56
2023-03-05T10:09:41.118Z,99669.16
2023-03-05T10:12:07.556Z,99679.25
2023-03-05T10:14:34.786Z,99670.38
2023-03-05T10:17:01.166Z,99668.53
2023-03-05T10:19:27.581Z,99674.56
2023-03-05T10:21:53.906Z,99665.72
2023-03-05T10:24:20.261Z,99659.63
2023-03-05T10:26:46.617Z,99662.03
2023-03-05T10:29:13.008Z,99661.25
2023-03-05T10:31:39.427Z,99660.41
2023-03-05T10:34:05.910Z,99663.88
2023-03-05T10:36:35.174Z,99663.47
2023-03-05T10:39:01.704Z,99657.50
2023-03-05T10:41:28.191Z,99654.81
2023-03-05T10:43:54.627Z,99655.56
2023-03-05T10:46:21.852Z,99649.13
2023-03-05T10:48:49.094Z,99648.59
2023-03-05T10:51:16.707Z,99643.56
2023-03-05T10:53:43.944Z,99630.88
2023-03-05T10:56:13.121Z,99632.44
2023-03-05T10:58:39.609Z,99616.31
2023-03-05T11:01:08.076Z,99634.88
2023-03-05T11:03:36.383Z,99625.88
2023-03-05T11:06:02.828Z,99636.53
2023-03-05T11:08:31.978Z,99625.19
2023-03-05T11:10:59.228Z,99620.59
2023-03-05T11:13:26.482Z,99618.19
2023-03-05T11:15:52.874Z,99622.16
2023-03-05T11:18:20.213Z,99619.09
2023-03-05T11:20:46.576Z,99615.78
2023-03-05T11:23:12.990Z,99609.59
2023-03-05T11:25:39.373Z,99616.97
2023-03-05T11:30:49.749Z,99606.34
2023-03-05T11:33:16.120Z,99615.38
2023-03-05T11:35:42.500Z,99609.41
2023-03-05T11:38:08.910Z,99602.72
2023-03-05T11:40:36.515Z,99599.13
2023-03-05T11:45:48.482Z,99595.28
2023-03-05T11:48:14.870Z,99594.63
2023-03-05T11:50:41.332Z,99583.03
2023-03-05T11:53:07.844Z,99588.47
2023-03-05T11:55:34.330Z,99587.94
2023-03-05T12:00:54.774Z,99576.47
2023-03-05T12:03:21.510Z,99576.47
2023-03-05T12:05:48.051Z,99568.50
2023-03-05T12:08:15.558Z,99581.22
2023-03-05T12:10:42.050Z,99577.97
2023-03-05T12:15:52.534Z,99569.19
2023-03-05T12:18:19.946Z,99565.19
2023-03-05T12:20:47.397Z,99572.72
2023-03-05T12:23:13.922Z,99566.75
2023-03-05T12:25:41.641Z,99565.63
2023-03-05T12:30:53.248Z,99559.09
2023-03-05T12:33:19.701Z,99560.47
2023-03-05T12:35:48.042Z,99550.50
2023-03-05T12:38:26.556Z,99555.22
2023-03-05T12:40:53.707Z,99547.28
2023-03-05T12:46:05.027Z,99546.53
2023-03-05T12:48:34.961Z,99548.72
2023-03-05T12:51:02.298Z,99549.25
2023-03-05T12:53:29.557Z,99543.06
2023-03-05T12:55:56.816Z,99535.75
2023-03-05T13:01:17.156Z,99530.41
2023-03-05T13:03:43.663Z,99528.53
2023-03-05T13:06:10.151Z,99528.88
2023-03-05T13:08:37.572Z,99527.47
2023-03-05T13:11:04.953Z,99525.53
2023-03-05T13:16:27.102Z,99527.84
2023-03-05T13:18:54.549Z,99522.72
2023-03-05T13:21:21.035Z,99521.47
2023-03-05T13:23:48.453Z,99519.84
2023-03-05T13:26:15.846Z,99522.00
2023-03-05T13:31:36.499Z,99512.78
2023-03-05T13:34:03.150Z,99516.97
2023-03-05T13:36:30.580Z,99516.81
2023-03-05T13:38:57.982Z,99514.78
2023-03-05T13:41:25.279Z,99516.22
2023-03-05T13:46:37.573Z,99502.81
2023-03-05T13:49:04.005Z,99502.16
2023-03-05T13:51:31.435Z,99497.38
2023-03-05T13:53:57.892Z,99499.66
2023-03-05T13:56:24.488Z,99497.50
2023-03-05T14:01:35.277Z,99497.06
2023-03-05T14:04:01.615Z,99485.78
2023-03-05T14:06:27.949Z,99486.56
2023-03-05T14:08:54.467Z,99487.28
2023-03-05T14:11:20.818Z,99481.44
2023-03-05T14:16:31.193Z,99484.09
2023-03-05T14:18:57.547Z,99486.63
2023-03-05T14:21:24.082Z,99489.00
2023-03-05T14:23:50.419Z,99483.91
2023-03-05T14:26:17.644Z,99478.41
2023-03-05T14:28:44.019Z,99481.13
2023-03-05T14:31:10.412Z,99487.59
2023-03-05T14:33:36.773Z,99482.75
2023-03-05T14:36:03.618Z,99486.00
2023-03-05T14:38:30.072Z,99485.34
2023-03-05T14:40:56.436Z,99480.91
2023-03-05T14:43:22.788Z,99482.09
2023-03-05T14:45:49.176Z,99479.97
2023-03-05T14:48:16.432Z,99479.97
2023-03-05T14:50:42.778Z,99480.97
2023-03-05T14:53:09.142Z,99474.94
2023-03-05T14:55:35.486Z,99470.25
2023-03-05T14:58:01.821Z,99469.78
2023-03-05T15:00:28.231Z,99473.16
2023-03-05T15:02:54.640Z,99470.78
2023-03-05T15:05:21.071Z,99464.94
2023-03-05T15:07:47.403Z,99474.81
2023-03-05T15:10:14.640Z,99469.63
2023-03-05T15:12:40.968Z,99472.41
2023-03-05T15:15:07.524Z,99474.41
2023-03-05T15:17:33.867Z,99476.03
2023-03-05T15:20:00.216Z,99477.22
2023-03-05T15:22:26.604Z,99478.00
2023-03-05T15:24:53.815Z,99478.03
2023-03-05T15:27:20.297Z,99484.38
2023-03-05T15:29:46.677Z,99479.22
2023-03-05T15:32:13.355Z,99479.63
2023-03-05T15:34:39.826Z,99479.63
2023-03-05T15:37:06.265Z,99473.28
2023-03-05T15:39:32.626Z,99472.47
2023-03-05T15:41:59.874Z,99466.19
2023-03-05T15:44:27.191Z,99476.47
2023-03-05T15:49:38.568Z,99473.66
2023-03-05T15:52:04.984Z,99473.66
2023-03-05T15:54:31.366Z,99478.03
2023-03-05T15:56:57.723Z,99469.75
2023-03-05T15:59:24.050Z,99475.28
2023-03-05T16:04:47.244Z,99476.44
2023-03-05T16:07:13.832Z,99482.41
2023-03-05T16:09:41.082Z,99483.53
2023-03-05T16:12:07.529Z,99478.81
2023-03-05T16:14:34.778Z,99483.53
2023-03-05T16:19:44.997Z,99481.97
2023-03-05T16:22:12.293Z,99479.97
2023-03-05T16:24:38.866Z,99483.50
2023-03-05T16:27:05.511Z,99491.34
2023-03-05T16:29:32.735Z,99486.94
2023-03-05T16:34:53.684Z,99496.84
2023-03-05T16:37:21.119Z,99498.56
2023-03-05T16:39:47.833Z,99499.31
2023-03-05T16:42:15.446Z,99495.69
2023-03-05T16:44:41.925Z,99498.50
2023-03-05T16:50:07.828Z,99497.78
2023-03-05T16:52:35.096Z,99500.09
2023-03-05T16:55:01.515Z,99506.00
2023-03-05T16:57:28.123Z,99508.06
2023-03-05T16:59:55.384Z,99511.50
2023-03-05T17:05:05.637Z,99513.56
2023-03-05T17:07:31.984Z,99511.50
2023-03-05T17:09:58.421Z,99509.38
2023-03-05T17:12:25.642Z,99507.38
2023-03-05T17:14:53.081Z,99508.97
2023-03-05T17:20:04.613Z,99516.06
2023-03-05T17:22:31.088Z,99513.19
2023-03-05T17:24:58.517Z,99506.91
2023-03-05T17:27:24.994Z,99504.13
2023-03-05T17:29:51.465Z,99510.09
2023-03-05T17:35:13.988Z,99509.50
2023-03-05T17:37:41.544Z,99512.16
2023-03-05T17:40:08.947Z,99506.66
2023-03-05T17:42:35.401Z,99508.13
2023-03-05T17:45:02.806Z,99503.41
2023-03-05T17:50:14.187Z,99504.75
2023-03-05T17:52:43.308Z,99508.38
2023-03-05T17:55:09.811Z,99503.94
2023-03-05T17:57:36.237Z,99500.81
2023-03-05T18:00:03.503Z,99508.59
2023-03-05T18:05:26.884Z,99504.06
2023-03-05T18:07:54.293Z,99506.19
2023-03-05T18:10:20.826Z,99505.41
2023-03-05T18:12:47.311Z,99502.13
2023-03-05T18:15:14.748Z,99504.66
2023-03-05T18:20:25.304Z,99498.38
2023-03-05T18:22:51.820Z,99501.00
2023-03-05T18:25:18.875Z,99505.81
2023-03-05T18:27:46.304Z,99506.19
2023-03-05T18:30:13.695Z,99505.34
2023-03-05T18:32:40.285Z,99510.03
2023-03-05T18:35:06.808Z,99500.16
2023-03-05T18:37:34.209Z,99506.28
2023-03-05T18:40:00.712Z,99508.47
2023-03-05T18:42:27.292Z,99505.00
2023-03-05T18:44:54.728Z,99502.13
2023-03-05T18:47:21.195Z,99512.69
2023-03-05T18:49:48.638Z,99506.59
2023-03-05T18:52:16.036Z,99499.34
2023-03-05T18:54:43.146Z,99503.88
2023-03-05T18:57:10.538Z,99504.97
2023-03-05T18:59:37.006Z,99501.47
2023-03-05T19:02:03.496Z,99501.75
2023-03-05T19:04:30.005Z,99502.28
2023-03-05T19:06:56.692Z,99499.03
2023-03-05T19:09:24.110Z,99501.16
2023-03-05T19:11:51.524Z,99502.19
2023-03-05T19:14:18.041Z,99508.66
2023-03-05T19:16:45.439Z,99491.53
2023-03-05T19:19:12.132Z,99496.91
2023-03-05T19:21:38.608Z,99508.13
2023-03-05T19:24:06.035Z,99502.09
2023-03-05T19:26:32.724Z,99496.28
2023-03-05T19:28:59.246Z,99507.25
2023-03-05T19:31:25.787Z,99505.75
2023-03-05T19:33:53.209Z,99498.94
2023-03-05T19:39:04.806Z,99507.31
2023-03-05T19:41:31.278Z,99502.19
2023-03-05T19:43:58.667Z,99496.56
2023-03-05T19:46:25.255Z,99493.19
2023-03-05T19:48:51.958Z,99499.78
2023-03-05T19:54:04.310Z,99505.50
2023-03-05T19:56:30.773Z,99503.75
2023-03-05T19:58:58.236Z,99508.59
2023-03-05T20:01:25.737Z,99509.72
2023-03-05T20:03:52.289Z,99505.00
2023-03-05T20:09:14.760Z,99509.78
2023-03-05T20:11:42.655Z,99502.56
2023-03-05T20:14:09.134Z,99509.00
2023-03-05T20:16:35.665Z,99511.00
2023-03-05T20:19:03.130Z,99511.38
2023-03-05T20:24:13.692Z,99506.97
2023-03-05T20:26:41.124Z,99510.16
2023-03-05T20:29:08.317Z,99507.44
2023-03-05T20:31:34.852Z,99502.56
2023-03-05T20:34:01.430Z,99500.28
2023-03-05T20:39:22.987Z,99505.81
2023-03-05T20:41:49.481Z,99497.91
2023-03-05T20:44:15.947Z,99508.25
2023-03-05T20:46:43.345Z,99504.19
2023-03-05T20:49:09.840Z,99505.00
2023-03-05T20:54:31.185Z,99506.59
2023-03-05T20:56:57.696Z,99505.88
2023-03-05T20:59:24.296Z,99506.28
2023-03-05T21:01:51.022Z,99516.59
2023-03-05T21:04:17.507Z,99501.41
2023-03-05T21:09:27.975Z,99508.97
2023-03-05T21:11:55.637Z,99492.66
2023-03-05T21:14:23.059Z,99492.41
2023-03-05T21:16:50.397Z,99493.56
2023-03-05T21:19:17.323Z,99492.47
2023-03-05T21:24:29.852Z,99489.63
2023-03-05T21:26:57.249Z,99492.78
2023-03-05T21:29:23.878Z,99496.38
2023-03-05T21:31:51.342Z,99491.59
2023-03-05T21:34:18.738Z,99486.91
2023-03-05T21:39:40.084Z,99481.78
2023-03-05T21:42:07.588Z,99481.31
2023-03-05T21:44:34.037Z,99482.88
2023-03-05T21:47:00.507Z,99490.06
2023-03-05T21:49:27.952Z,99474.91
2023-03-05T21:54:39.170Z,99481.84
2023-03-05T21:57:05.757Z,99480.47
2023-03-05T21:59:32.264Z,99481.69
2023-03-05T22:01:58.797Z,99470.75
2023-03-05T22:04:26.239Z,99478.09
2023-03-05T22:09:48.412Z,99483.69
2023-03-05T22:12:15.807Z,99475.69
2023-03-05T22:14:42.292Z,99467.28
2023-03-05T22:17:08.854Z,99477.69
2023-03-05T22:19:35.314Z,99479.75
2023-03-05T22:24:46.023Z,99482.69
2023-03-05T22:27:12.546Z,99473.78
2023-03-05T22:29:39.067Z,99473.81
2023-03-05T22:32:06.500Z,99478.84
2023-03-05T22:34:32.941Z,99475.28
2023-03-05T22:39:55.446Z,99471.66
2023-03-05T22:42:22.903Z,99475.41
2023-03-05T22:44:50.267Z,99468.88
2023-03-05T22:47:17.647Z,99464.94
2023-03-05T22:49:46.845Z,99471.59
2023-03-05T22:54:59.414Z,99468.88
2023-03-05T22:57:25.848Z,99473.28
2023-03-05T22:59:52.343Z,99473.25
2023-03-05T23:02:18.857Z,99470.25
2023-03-05T23:04:45.274Z,99471.44
2023-03-05T23:07:12.580Z,99469.84
2023-03-05T23:09:39.848Z,99474.63
2023-03-05T23:12:09.032Z,99476.13
2023-03-05T23:14:36.282Z,99469.53
2023-03-05T23:17:02.756Z,99469.13
2023-03-05T23:19:29.256Z,99466.22
2023-03-05T23:21:57.560Z,99465.06
2023-03-05T23:24:24.074Z,99461.28
2023-03-05T23:26:51.362Z,99464.34
2023-03-05T23:29:18.579Z,99467.91
2023-03-05T23:31:45.069Z,99461.28
2023-03-05T23:34:13.354Z,99464.72
2023-03-05T23:36:41.671Z,99459.22
2023-03-05T23:39:08.880Z,99459.69
2023-03-05T23:41:35.472Z,99460.38
2023-03-05T23:44:04.669Z,99460.19
2023-03-05T23:46:31.130Z,99460.13
2023-03-05T23:49:00.367Z,99457.69
2023-03-05T23:51:26.765Z,99461.41
2023-03-05T23:53:54.101Z,99453.72
2023-03-05T23:56:20.598Z,99454.25
2023-03-05T23:58:47.838Z,99457.81
